Terminal Aerodrome Forecast
Issued by NWS

Home | Current Version | Previous Version | Text Only | Print | Product List | Glossary On
Versions: 1 2 3 4 5 6 7 8 9 10 11 12 13
000
FTUS42 TJSJ 312300
TAFJPS
TAF
TJPS 312336Z 0100/0124 08005KT P6SM VCSH FEW030
     FM011500 15011KT P6SM FEW030
     FM012200 07005KT P6SM FEW030
      AMD NOT SKED TIL 010300=

USA.gov is the U.S. government's official web portal to all federal, state and local government web resources and services.